Courtland, California
Current Conditions -  °F | °C
As of 12:27 AM on Saturday 29 Nov 2014 (Local Time) from KSAC Reporting Station
Light Rain Light Rain  
Wind Chill: 54°   Ceiling: 2300
Heat Index: 54°   Visibility: 6mi
Dew Point: 52°   Wind: 6mph
Humidity: 94%   Direction: 110°ESE
Pressure: 29.87"   Gusts: NA
Location:  38.33°N, 121.57°W
Report Text: KSAC 290827Z AUTO 11005KT 6SM -RA BR BKN023 OVC045 12/11 A2987 RMK AO2 P0001
Loading
Personal Weather Stations






























Interactive Weather Map New forecast layout! Learn more

10-Day Weather Forecast

Advertisements
Track Severe Weather on mobile